Time;durP1;ratioP1;P1;durP2;ratioP2;P2;SDS_P1;SDS_P2;PMS_P1;PMS_P2;Temp;Humidity;BMP_temperature;BMP_pressure;BME280_temperature;BME280_humidity;BME280_pressure;Samples;Min_cycle;Max_cycle;Signal;HPM_P1;HPM_P2
2022/11/27 00:01:12;;;;;;;1999.90;999.90;;;;;;;0.92;100.00;95731.19;4980500;28;20182;-61
2022/11/27 00:03:38;;;;;;;1999.90;999.90;;;;;;;0.92;100.00;95731.97;4979948;28;20226;-61
2022/11/27 00:06:04;;;;;;;1999.90;999.90;;;;;;;0.90;100.00;95726.13;4980865;28;20179;-61
2022/11/27 00:08:30;;;;;;;1999.90;999.90;;;;;;;0.90;100.00;95726.13;4980682;28;20211;-62
2022/11/27 00:10:55;;;;;;;1999.90;999.90;;;;;;;0.91;100.00;95729.63;4980247;28;20183;-61
2022/11/27 00:13:21;;;;;;;1999.90;999.90;;;;;;;0.86;100.00;95741.38;4980002;28;20327;-63
2022/11/27 00:15:46;;;;;;;1999.90;999.90;;;;;;;0.87;100.00;95734.09;4979873;28;20172;-64
2022/11/27 00:18:11;;;;;;;1999.90;999.90;;;;;;;0.87;100.00;95748.28;4979825;28;20246;-63
2022/11/27 00:20:37;;;;;;;1999.90;999.90;;;;;;;0.86;100.00;95748.63;4980020;28;20175;-64
2022/11/27 00:23:02;;;;;;;1999.90;999.90;;;;;;;0.90;100.00;95754.91;4979864;28;20174;-65
2022/11/27 00:25:28;;;;;;;1999.90;999.90;;;;;;;0.89;100.00;95758.72;4979941;28;20182;-65
2022/11/27 00:27:53;;;;;;;1999.90;999.90;;;;;;;0.88;100.00;95757.94;4979784;28;20175;-65
2022/11/27 00:30:18;;;;;;;1999.90;999.90;;;;;;;0.85;100.00;95758.63;4979928;28;20622;-61
2022/11/27 00:32:44;;;;;;;1999.90;999.90;;;;;;;0.84;100.00;95756.25;4979876;28;20171;-60
2022/11/27 00:35:09;;;;;;;1999.90;999.90;;;;;;;0.82;100.00;95764.66;4979831;28;20174;-69
2022/11/27 00:37:35;;;;;;;1999.90;999.90;;;;;;;0.79;100.00;95762.63;4979987;28;20177;-67
2022/11/27 00:40:00;;;;;;;1999.90;999.90;;;;;;;0.79;100.00;95759.94;4979775;28;20210;-67
2022/11/27 00:42:26;;;;;;;1999.90;999.90;;;;;;;0.80;100.00;95758.81;4980097;28;20180;-67
2022/11/27 00:44:51;;;;;;;1999.90;999.90;;;;;;;0.80;100.00;95758.81;4979120;28;20179;-66
2022/11/27 00:47:16;;;;;;;1999.90;999.90;;;;;;;0.79;100.00;95751.06;4980004;28;20238;-66
2022/11/27 00:49:42;;;;;;;1999.90;999.90;;;;;;;0.77;100.00;95745.25;4979640;28;20253;-65
2022/11/27 00:52:07;;;;;;;1999.90;999.90;;;;;;;0.74;100.00;95730.59;4980009;28;20178;-62
2022/11/27 00:54:33;;;;;;;1999.90;999.90;;;;;;;0.75;100.00;95732.16;4979596;28;20179;-63
2022/11/27 00:56:58;;;;;;;1999.90;999.90;;;;;;;0.74;100.00;95725.22;4979838;28;20182;-62
2022/11/27 00:59:24;;;;;;;1999.90;999.90;;;;;;;0.74;100.00;95730.59;4979482;28;20223;-63
2022/11/27 01:01:49;;;;;;;1999.90;999.90;;;;;;;0.72;100.00;95743.56;4978710;28;20174;-62
2022/11/27 01:04:15;;;;;;;1999.90;999.90;;;;;;;0.74;100.00;95740.53;4979454;28;20196;-63
2022/11/27 01:06:41;;;;;;;1999.90;999.90;;;;;;;0.76;100.00;95739.09;4979645;28;20181;-65
2022/11/27 01:09:07;;;;;;;1999.90;999.90;;;;;;;0.73;100.00;95741.66;4979156;28;20221;-61
2022/11/27 01:11:34;;;;;;;1999.90;999.90;;;;;;;0.70;100.00;95735.06;4979227;28;20179;-63
2022/11/27 01:14:02;;;;;;;1999.90;999.90;;;;;;;0.68;100.00;95729.22;4979215;28;20249;-63
2022/11/27 01:16:30;;;;;;;1999.90;999.90;;;;;;;0.70;100.00;95735.06;4979090;28;20175;-63
2022/11/27 01:18:58;;;;;;;1999.90;999.90;;;;;;;0.70;100.00;95732.38;4978870;28;20325;-62
2022/11/27 01:21:26;;;;;;;1999.90;999.90;;;;;;;0.71;100.00;95727.78;4996126;28;20227;-63
2022/11/27 01:23:53;;;;;;;1999.90;999.90;;;;;;;0.72;100.00;95721.31;4978554;28;20185;-63
2022/11/27 01:26:18;;;;;;;1999.90;999.90;;;;;;;0.74;100.00;95721.72;4978915;28;20174;-62
2022/11/27 01:28:45;;;;;;;1999.90;999.90;;;;;;;0.68;100.00;95731.91;4979150;28;20217;-64
2022/11/27 01:31:18;;;;;;;1999.90;999.90;;;;;;;0.67;100.00;95738.41;4978588;28;20183;-64
2022/11/27 01:33:45;;;;;;;1999.90;999.90;;;;;;;0.65;100.00;95740.63;4978463;28;20183;-64
2022/11/27 01:36:14;;;;;;;1999.90;999.90;;;;;;;0.61;100.00;95737.03;4979116;28;20202;-65
2022/11/27 01:38:40;;;;;;;1999.90;999.90;;;;;;;0.57;100.00;95735.34;4978710;28;20264;-65
2022/11/27 01:41:13;;;;;;;1999.90;999.90;;;;;;;0.54;100.00;95731.41;4978612;28;20207;-64
2022/11/27 01:43:44;;;;;;;1999.90;999.90;;;;;;;0.52;100.00;95733.66;4978443;28;20178;-62
2022/11/27 01:46:24;;;;;;;1999.90;999.90;;;;;;;0.50;100.00;95730.50;4978850;28;20200;-68
2022/11/27 01:48:53;;;;;;;1999.90;999.90;;;;;;;0.50;100.00;95730.50;4978041;28;20209;-62
2022/11/27 01:51:21;;;;;;;1999.90;999.90;;;;;;;0.46;100.00;95734.97;4978387;28;20176;-62
2022/11/27 01:53:46;;;;;;;1999.90;999.90;;;;;;;0.35;100.00;95733.81;4978670;28;20182;-61
2022/11/27 01:56:13;;;;;;;1999.90;999.90;;;;;;;0.32;100.00;95726.41;4977873;28;20249;-61
2022/11/27 01:58:39;;;;;;;1999.90;999.90;;;;;;;0.29;100.00;95724.38;4978794;28;20244;-63
2022/11/27 02:01:04;;;;;;;1999.90;999.90;;;;;;;0.29;100.00;95719.00;4978277;28;20264;-61
2022/11/27 02:03:31;;;;;;;1999.90;999.90;;;;;;;0.26;100.00;95718.91;4978535;28;20182;-62
2022/11/27 02:05:56;;;;;;;1999.90;999.90;;;;;;;0.24;100.00;95710.38;4978716;28;20176;-61
2022/11/27 02:08:21;;;;;;;1999.90;999.90;;;;;;;0.42;100.00;95687.63;4995137;28;20181;-61
2022/11/27 02:10:49;;;;;;;1999.90;999.90;;;;;;;0.49;100.00;95688.66;4978613;28;20177;-60
2022/11/27 02:13:30;;;;;;;1999.90;999.90;;;;;;;0.47;100.00;95682.81;4978034;28;20177;-60
2022/11/27 02:16:01;;;;;;;1999.90;999.90;;;;;;;0.50;100.00;95681.41;4995347;28;20174;-60
2022/11/27 02:18:31;;;;;;;1999.90;999.90;;;;;;;0.47;100.00;95682.81;4977795;28;20183;-60
2022/11/27 02:21:09;;;;;;;1999.90;999.90;;;;;;;0.44;100.00;95672.75;4978366;28;20185;-62
2022/11/27 02:23:34;;;;;;;1999.90;999.90;;;;;;;0.39;100.00;95678.31;4978541;28;20460;-66
2022/11/27 02:26:29;;;;;;;1999.90;999.90;;;;;;;0.38;100.00;95666.03;4978251;28;20233;-63
2022/11/27 02:29:18;;;;;;;1999.90;999.90;;;;;;;0.36;100.00;95665.56;4978080;28;20200;-65
2022/11/27 02:32:18;;;;;;;1999.90;999.90;;;;;;;0.34;100.00;95646.31;4978553;28;20196;-64
2022/11/27 02:34:52;;;;;;;1999.90;999.90;;;;;;;0.31;100.00;95651.56;4977988;28;20197;-64
2022/11/27 02:37:21;;;;;;;1999.90;999.90;;;;;;;0.31;100.00;95646.19;4977583;28;20239;-64
2022/11/27 02:40:07;;;;;;;1999.90;999.90;;;;;;;0.29;100.00;95643.06;4978484;28;20190;-62
2022/11/27 02:42:41;;;;;;;1999.90;999.90;;;;;;;0.30;100.00;95640.06;4978402;28;20180;-67
2022/11/27 02:45:15;;;;;;;1999.90;999.90;;;;;;;0.31;100.00;95636.25;4978305;28;20174;-65
2022/11/27 02:47:43;;;;;;;1999.90;999.90;;;;;;;0.28;100.00;95641.50;4977966;28;20646;-66
2022/11/27 02:50:13;;;;;;;1999.90;999.90;;;;;;;0.28;100.00;95641.50;4977430;28;20214;-66
2022/11/27 02:52:40;;;;;;;1999.90;999.90;;;;;;;0.30;100.00;95634.69;4978223;28;20194;-66
2022/11/27 02:55:10;;;;;;;1999.90;999.90;;;;;;;0.28;100.00;95631.53;4977570;28;20241;-65
2022/11/27 02:57:37;;;;;;;1999.90;999.90;;;;;;;0.27;100.00;95627.28;4978153;28;20181;-63
2022/11/27 03:00:05;;;;;;;1999.90;999.90;;;;;;;0.27;100.00;95618.44;4977631;28;20216;-63
2022/11/27 03:02:40;;;;;;;1999.90;999.90;;;;;;;0.28;100.00;95615.44;4977406;28;20196;-62
2022/11/27 03:05:11;;;;;;;1999.90;999.90;;;;;;;0.28;100.00;95612.75;4977754;28;20205;-60
2022/11/27 03:07:43;;;;;;;1999.90;999.90;;;;;;;0.24;100.00;95597.63;4977250;28;20244;-60
2022/11/27 03:10:17;;;;;;;1999.90;999.90;;;;;;;0.21;100.00;95601.75;4978225;28;20654;-61
2022/11/27 03:12:43;;;;;;;1999.90;999.90;;;;;;;0.19;100.00;95601.31;4977783;28;20178;-61
2022/11/27 03:15:09;;;;;;;1999.90;999.90;;;;;;;0.16;100.00;95599.28;4977508;28;20188;-61
2022/11/27 03:17:52;;;;;;;1999.90;999.90;;;;;;;0.17;100.00;95608.91;4978023;28;20175;-64
2022/11/27 03:20:25;;;;;;;1999.90;999.90;;;;;;;0.20;100.00;95600.19;4977365;28;20259;-62
2022/11/27 03:22:55;;;;;;;1999.90;999.90;;;;;;;0.19;100.00;95601.31;4977195;28;20178;-61
2022/11/27 03:25:22;;;;;;;1999.90;999.90;;;;;;;0.19;100.00;95597.84;4978891;28;20182;-62
2022/11/27 03:27:59;;;;;;;1999.90;999.90;;;;;;;0.16;100.00;95603.88;4980455;28;20177;-62
2022/11/27 03:30:25;;;;;;;1999.90;999.90;;;;;;;0.15;100.00;95600.41;4980632;28;20201;-62
2022/11/27 03:32:51;;;;;;;1999.90;999.90;;;;;;;0.13;100.00;95597.28;4980685;28;20234;-61
2022/11/27 03:35:21;;;;;;;1999.90;999.90;;;;;;;0.11;100.00;95594.16;4980836;28;20181;-65
2022/11/27 03:37:47;;;;;;;1999.90;999.90;;;;;;;0.03;100.00;95589.63;4981366;28;20181;-61
2022/11/27 03:40:13;;;;;;;1999.90;999.90;;;;;;;0.02;100.00;95585.38;4980945;28;20176;-62
2022/11/27 03:42:47;;;;;;;1999.90;999.90;;;;;;;0.02;100.00;95588.06;4981081;28;20197;-62
2022/11/27 03:45:27;;;;;;;1999.90;999.90;;;;;;;0.02;100.00;95569.28;4981178;28;20268;-61
2022/11/27 03:47:58;;;;;;;1999.90;999.90;;;;;;;0.05;100.00;95576.69;4981228;28;20178;-63
2022/11/27 03:50:23;;;;;;;1999.90;999.90;;;;;;;0.04;100.00;95575.13;4980907;28;20210;-63
2022/11/27 03:53:09;;;;;;;1999.90;999.90;;;;;;;0.00;100.00;95582.25;4980528;28;20207;-64
2022/11/27 03:56:26;;;;;;;1999.90;999.90;;;;;;;-0.03;100.00;95572.19;4981085;28;20230;-62
2022/11/27 03:58:58;;;;;;;1999.90;999.90;;;;;;;-0.07;100.00;95577.41;4948427;28;20206;-65
2022/11/27 04:01:26;;;;;;;1999.90;999.90;;;;;;;-0.05;100.00;95582.47;4981019;28;20174;-65
2022/11/27 04:03:52;;;;;;;1999.90;999.90;;;;;;;-0.05;100.00;95575.19;4979888;28;20213;-64
2022/11/27 04:06:17;;;;;;;1999.90;999.90;;;;;;;-0.04;100.00;95575.97;4980417;28;20259;-69
2022/11/27 04:08:45;;;;;;;1999.90;999.90;;;;;;;-0.04;100.00;95576.75;4980447;28;20203;-65
2022/11/27 04:11:11;;;;;;;1999.90;999.90;;;;;;;-0.03;100.00;95580.25;4980396;28;20212;-65
2022/11/27 04:13:37;;;;;;;1999.90;999.90;;;;;;;-0.10;100.00;95593.41;4979737;28;20197;-63
2022/11/27 04:16:02;;;;;;;1999.90;999.90;;;;;;;-0.06;100.00;95588.94;4980273;28;20184;-66
2022/11/27 04:18:28;;;;;;;1999.90;999.90;;;;;;;-0.10;100.00;95590.72;4979815;28;20184;-66
2022/11/27 04:20:53;;;;;;;1999.90;999.90;;;;;;;-0.11;100.00;95589.13;4979782;28;20181;-66
2022/11/27 04:23:19;;;;;;;1999.90;999.90;;;;;;;-0.12;100.00;95584.88;4979924;28;20255;-67
2022/11/27 04:25:44;;;;;;;1999.90;999.90;;;;;;;-0.13;100.00;95596.75;4979972;28;20282;-67
2022/11/27 04:28:10;;;;;;;1999.90;999.90;;;;;;;-0.12;100.00;95595.63;4979427;28;20341;-66
2022/11/27 04:30:35;;;;;;;1999.90;999.90;;;;;;;-0.17;100.00;95603.88;4980517;28;20270;-64
2022/11/27 04:33:00;;;;;;;1999.90;999.90;;;;;;;-0.18;100.00;95602.31;4979914;28;20237;-61
2022/11/27 04:35:26;;;;;;;1999.90;999.90;;;;;;;-0.21;100.00;95619.84;4979747;28;20185;-61
2022/11/27 04:37:51;;;;;;;1999.90;999.90;;;;;;;-0.22;100.00;95604.06;4978755;28;20201;-61
2022/11/27 04:40:17;;;;;;;1999.90;999.90;;;;;;;-0.23;100.00;95605.19;4979634;28;20293;-62
2022/11/27 04:42:42;;;;;;;1999.90;999.90;;;;;;;-0.25;100.00;95610.13;4979228;28;20178;-61
2022/11/27 04:45:08;;;;;;;1999.90;999.90;;;;;;;-0.25;100.00;95597.47;4979425;28;20212;-61
2022/11/27 04:47:34;;;;;;;1999.90;999.90;;;;;;;-0.31;100.00;95603.38;4979987;28;20268;-63
2022/11/27 04:49:59;;;;;;;1999.90;999.90;;;;;;;-0.33;100.00;95600.22;4979511;28;20202;-62
2022/11/27 04:52:25;;;;;;;1999.90;999.90;;;;;;;-0.31;100.00;95598.00;4979246;28;20183;-64
2022/11/27 04:54:50;;;;;;;1999.90;999.90;;;;;;;-0.32;100.00;95605.25;4979495;28;20229;-63
2022/11/27 04:57:15;;;;;;;1999.90;999.90;;;;;;;-0.31;100.00;95608.75;4980173;28;20234;-64
2022/11/27 04:59:41;;;;;;;1999.90;999.90;;;;;;;-0.29;100.00;95596.56;4979158;28;20183;-64
2022/11/27 05:02:06;;;;;;;1999.90;999.90;;;;;;;-0.29;100.00;95601.94;4978869;28;20177;-64
2022/11/27 05:04:32;;;;;;;1999.90;999.90;;;;;;;-0.34;100.00;95609.41;4979127;28;20202;-63
2022/11/27 05:06:57;;;;;;;1999.90;999.90;;;;;;;-0.33;100.00;95616.31;4979234;28;20194;-65
2022/11/27 05:09:22;;;;;;;1999.90;999.90;;;;;;;-0.39;100.00;95612.28;4979104;28;20212;-63
2022/11/27 05:11:48;;;;;;;1999.90;999.90;;;;;;;-0.40;100.00;95610.72;4979141;28;20178;-64
2022/11/27 05:14:21;;;;;;;1999.90;999.90;;;;;;;-0.42;100.00;95608.38;4979223;28;20175;-64
2022/11/27 05:16:52;;;;;;;1999.90;999.90;;;;;;;-0.45;100.00;95609.03;4979792;28;20182;-64
2022/11/27 05:19:20;;;;;;;1999.90;999.90;;;;;;;-0.46;100.00;95617.38;4979660;28;20257;-64
2022/11/27 05:21:47;;;;;;;1999.90;999.90;;;;;;;-0.46;100.00;95601.31;4979457;28;20196;-64
2022/11/27 05:24:13;;;;;;;1999.90;999.90;;;;;;;-0.44;100.00;95609.78;4978519;28;20255;-64
2022/11/27 05:26:39;;;;;;;1999.90;999.90;;;;;;;-0.45;100.00;95597.50;4978573;28;20235;-66
2022/11/27 05:29:06;;;;;;;1999.90;999.90;;;;;;;-0.44;100.00;95604.41;4978276;28;20299;-64
2022/11/27 05:31:32;;;;;;;1999.90;999.90;;;;;;;-0.53;100.00;95607.19;4978734;28;20287;-65
2022/11/27 05:33:58;;;;;;;1999.90;999.90;;;;;;;-0.50;100.00;95611.13;4978728;28;20172;-63
2022/11/27 05:36:23;;;;;;;1999.90;999.90;;;;;;;-0.51;100.00;95601.50;4978378;28;20180;-64
2022/11/27 05:38:51;;;;;;;1999.90;999.90;;;;;;;-0.49;100.00;95610.78;4978643;28;20286;-64
2022/11/27 05:41:17;;;;;;;1999.90;999.90;;;;;;;-0.47;100.00;95618.50;4978263;28;20187;-63
2022/11/27 05:43:42;;;;;;;1999.90;999.90;;;;;;;-0.44;100.00;95609.78;4978492;28;20176;-65
2022/11/27 05:46:11;;;;;;;1999.90;999.90;;;;;;;-0.46;100.00;95595.94;4978788;28;20283;-64
2022/11/27 05:48:37;;;;;;;1999.90;999.90;;;;;;;-0.49;100.00;95599.28;4978060;28;20292;-63
2022/11/27 05:51:03;;;;;;;1999.90;999.90;;;;;;;-0.50;100.00;95605.75;4979018;28;20259;-64
2022/11/27 05:53:29;;;;;;;1999.90;999.90;;;;;;;-0.54;100.00;95594.13;4978727;28;20259;-63
2022/11/27 05:56:00;;;;;;;1999.90;999.90;;;;;;;-0.58;100.00;95609.28;4977974;28;20296;-63
2022/11/27 05:58:25;;;;;;;1999.90;999.90;;;;;;;-0.64;100.00;95607.91;4978223;28;20166;-63
2022/11/27 06:00:51;;;;;;;1999.90;999.90;;;;;;;-0.69;100.00;95610.78;4978194;28;20190;-63
2022/11/27 06:03:16;;;;;;;1999.90;999.90;;;;;;;-0.70;100.00;95618.03;4978011;28;20183;-61
2022/11/27 06:05:41;;;;;;;1999.90;999.90;;;;;;;-0.64;100.00;95606.03;4978449;28;20289;-62
2022/11/27 06:08:07;;;;;;;1999.90;999.90;;;;;;;-0.64;100.00;95615.94;4977897;28;20174;-62
2022/11/27 06:10:32;;;;;;;1999.90;999.90;;;;;;;-0.65;100.00;95617.06;4977997;28;20299;-62
2022/11/27 06:12:58;;;;;;;1999.90;999.90;;;;;;;-0.74;100.00;95619.00;4978609;28;20206;-62
2022/11/27 06:15:23;;;;;;;1999.90;999.90;;;;;;;-0.75;100.00;95626.28;4977981;28;20236;-62
2022/11/27 06:17:49;;;;;;;1999.90;999.90;;;;;;;-0.71;100.00;95631.75;4978415;28;20191;-61
2022/11/27 06:20:14;;;;;;;1999.90;999.90;;;;;;;-0.75;100.00;95636.22;4978555;28;20181;-67
2022/11/27 06:22:40;;;;;;;1999.90;999.90;;;;;;;-0.73;100.00;95628.63;4978160;28;20178;-61
2022/11/27 06:25:05;;;;;;;1999.90;999.90;;;;;;;-0.74;100.00;95638.56;4978014;28;20183;-61
2022/11/27 06:27:32;;;;;;;1999.90;999.90;;;;;;;-0.74;100.00;95645.81;4978626;28;20176;-61
2022/11/27 06:29:57;;;;;;;1999.90;999.90;;;;;;;-0.65;100.00;95641.19;4977825;28;20201;-61
2022/11/27 06:32:23;;;;;;;1999.90;999.90;;;;;;;-0.62;100.00;95635.19;4978296;28;20251;-61
2022/11/27 06:34:48;;;;;;;1999.90;999.90;;;;;;;-0.58;100.00;95641.47;4978264;28;20187;-61
2022/11/27 06:37:13;;;;;;;1999.90;999.90;;;;;;;-0.57;100.00;95648.38;4977973;28;20218;-61
2022/11/27 06:39:39;;;;;;;1999.90;999.90;;;;;;;-0.51;100.00;95652.47;4977846;28;20224;-60
2022/11/27 06:42:04;;;;;;;1999.90;999.90;;;;;;;-0.47;100.00;95648.00;4977745;28;20176;-60
2022/11/27 06:44:30;;;;;;;1999.90;999.90;;;;;;;-0.43;100.00;95649.69;4978313;28;20185;-60
2022/11/27 06:46:55;;;;;;;1999.90;999.90;;;;;;;-0.14;100.00;95646.16;4977573;28;20186;-61
2022/11/27 06:49:20;;;;;;;1999.90;999.90;;;;;;;0.22;100.00;95637.44;4977617;28;20207;-63
2022/11/27 06:51:47;;;;;;;1999.90;999.90;;;;;;;0.74;100.00;95633.88;4978579;28;20183;-62
2022/11/27 06:54:12;;;;;;;1999.90;999.90;;;;;;;1.16;100.00;95651.34;4977505;28;20173;-61
2022/11/27 06:56:38;;;;;;;1999.90;999.90;;;;;;;1.33;100.00;95677.22;4977328;28;20277;-62
2022/11/27 06:59:03;;;;;;;1999.90;999.90;;;;;;;1.71;100.00;95704.53;4977585;28;20266;-65
2022/11/27 07:01:30;;;;;;;1999.90;999.90;;;;;;;1.91;100.00;95744.75;4980509;28;20395;-67
2022/11/27 07:03:56;;;;;;;1999.90;999.90;;;;;;;2.49;100.00;95789.97;4981415;28;20650;-65
2022/11/27 07:06:23;;;;;;;1999.90;999.90;;;;;;;3.30;100.00;95840.72;4981327;28;20183;-66
2022/11/27 07:08:49;;;;;;;1999.90;999.90;;;;;;;3.92;100.00;95923.72;4981026;28;20211;-67
2022/11/27 07:11:18;;;;;;;1999.90;999.90;;;;;;;3.75;100.00;96026.66;4981795;28;20176;-65
2022/11/27 07:13:44;;;;;;;1999.90;999.90;;;;;;;3.53;100.00;96086.59;4980871;28;20173;-65
2022/11/27 07:16:12;;;;;;;1999.90;999.90;;;;;;;3.98;100.00;96122.25;4981241;28;20179;-63
2022/11/27 07:18:42;;;;;;;1999.90;999.90;;;;;;;4.65;100.00;96144.56;4981783;28;20188;-62
2022/11/27 07:21:07;;;;;;;1999.90;999.90;;;;;;;4.71;100.00;96169.44;4981098;28;20183;-62
2022/11/27 07:23:33;;;;;;;1999.90;999.90;;;;;;;4.94;100.00;96205.63;4980922;28;20179;-62
2022/11/27 07:26:04;;;;;;;1999.90;999.90;;;;;;;5.30;100.00;96218.94;4981531;28;20206;-63
2022/11/27 07:28:29;;;;;;;1999.90;999.90;;;;;;;4.29;100.00;96238.59;4981419;28;20171;-63
2022/11/27 07:30:56;;;;;;;1999.90;999.90;;;;;;;4.64;100.00;96239.59;4981086;28;20525;-63
2022/11/27 07:33:23;;;;;;;1999.90;999.90;;;;;;;4.46;100.00;96249.09;4980646;28;20214;-64
2022/11/27 07:35:48;;;;;;;1999.90;999.90;;;;;;;4.49;100.00;96249.22;4981416;28;20274;-61
2022/11/27 07:38:14;;;;;;;1999.90;999.90;;;;;;;4.36;100.00;96260.38;4980761;28;20204;-63
2022/11/27 07:40:39;;;;;;;1999.90;999.90;;;;;;;5.46;100.00;96250.28;4980563;28;20183;-63
2022/11/27 07:43:05;;;;;;;1999.90;999.90;;;;;;;5.46;100.00;96254.94;4981263;28;20186;-64
2022/11/27 07:45:30;;;;;;;1999.90;999.90;;;;;;;5.86;100.00;96256.34;4980348;28;20186;-63
2022/11/27 07:47:55;;;;;;;1999.90;999.90;;;;;;;5.52;100.00;96258.94;4980549;28;20278;-64
2022/11/27 07:50:21;;;;;;;1999.90;999.90;;;;;;;5.37;100.00;96260.53;4980364;28;20242;-64
2022/11/27 07:52:46;;;;;;;1999.90;999.90;;;;;;;6.18;100.00;96248.94;4980852;28;20183;-64
2022/11/27 07:55:12;;;;;;;1999.90;999.90;;;;;;;6.89;100.00;96250.06;4980906;28;20224;-64
2022/11/27 07:57:38;;;;;;;1999.90;999.90;;;;;;;6.87;100.00;96259.72;4980993;28;20187;-64
2022/11/27 08:00:04;;;;;;;1999.90;999.90;;;;;;;7.26;100.00;96253.09;4981064;28;20188;-65
2022/11/27 08:02:30;;;;;;;1999.90;999.90;;;;;;;7.41;100.00;96256.84;4980384;28;20220;-65
2022/11/27 08:04:55;;;;;;;1999.90;999.90;;;;;;;7.55;100.00;96260.63;4980162;28;20274;-66
2022/11/27 08:07:26;;;;;;;1999.90;999.90;;;;;;;7.78;100.00;96250.50;4980817;28;20235;-66
2022/11/27 08:09:51;;;;;;;1999.90;999.90;;;;;;;8.17;100.00;96257.34;4980474;28;20661;-72
2022/11/27 08:12:17;;;;;;;1999.90;999.90;;;;;;;8.51;100.00;96250.88;4979812;28;20179;-67
2022/11/27 08:14:42;;;;;;;1999.90;999.90;;;;;;;8.31;100.00;96257.56;4979927;28;20204;-64
2022/11/27 08:17:11;;;;;;;1999.90;999.90;;;;;;;8.23;100.00;96255.91;4979667;28;20243;-63
2022/11/27 08:19:37;;;;;;;1999.90;999.90;;;;;;;8.37;100.00;96247.94;4980018;28;20190;-64
2022/11/27 08:22:02;;;;;;;1999.90;999.90;;;;;;;7.88;100.00;96255.34;4980493;28;20185;-64
2022/11/27 08:24:28;;;;;;;1999.90;999.90;;;;;;;7.97;100.00;96242.25;4979956;28;20232;-62
2022/11/27 08:26:53;;;;;;;1999.90;999.90;;;;;;;7.97;100.00;96244.97;4979875;28;20193;-63
2022/11/27 08:29:18;;;;;;;1999.90;999.90;;;;;;;8.10;100.00;96251.81;4980706;28;20198;-63
2022/11/27 08:31:43;;;;;;;1999.90;999.90;;;;;;;8.13;100.00;96245.63;4980248;28;20212;-66
2022/11/27 08:34:09;;;;;;;1999.90;999.90;;;;;;;7.91;100.00;96238.31;4979912;28;20205;-65
2022/11/27 08:36:34;;;;;;;1999.90;999.90;;;;;;;7.73;100.00;96248.09;4979867;28;20186;-65
2022/11/27 08:38:59;;;;;;;1999.90;999.90;;;;;;;8.02;100.00;96247.41;4979357;28;20181;-65
2022/11/27 08:41:25;;;;;;;1999.90;999.90;;;;;;;8.24;100.00;96235.72;4979578;28;20288;-65
2022/11/27 08:43:50;;;;;;;1999.90;999.90;;;;;;;8.33;100.00;96238.94;4979404;28;20174;-65
2022/11/27 08:46:15;;;;;;;1999.90;999.90;;;;;;;8.32;100.00;96242.84;4979610;28;20176;-65
2022/11/27 08:48:41;;;;;;;1999.90;999.90;;;;;;;8.17;100.00;96246.47;4979556;28;20230;-61
2022/11/27 08:51:12;;;;;;;1999.90;999.90;;;;;;;7.80;100.00;96247.44;4979367;28;20180;-66
2022/11/27 08:53:38;;;;;;;1999.90;999.90;;;;;;;8.01;100.00;96248.53;4980109;28;20172;-65
2022/11/27 08:56:10;;;;;;;1999.90;999.90;;;;;;;8.42;100.00;96244.88;4979192;28;20217;-65
2022/11/27 08:58:35;;;;;;;1999.90;999.90;;;;;;;8.67;100.00;96235.13;4979889;28;20181;-67
2022/11/27 09:01:07;;;;;;;1999.90;999.90;;;;;;;8.64;100.00;96244.03;4979807;28;20227;-65
2022/11/27 09:03:32;;;;;;;1999.90;999.90;;;;;;;9.35;100.00;96237.44;4979015;28;20174;-64
2022/11/27 09:05:57;;;;;;;1999.90;999.90;;;;;;;9.30;100.00;96235.88;4979196;28;20183;-65
2022/11/27 09:08:23;;;;;;;1999.90;999.90;;;;;;;9.50;100.00;96231.78;4979222;28;20187;-60
2022/11/27 09:10:48;;;;;;;1999.90;999.90;;;;;;;10.01;100.00;96229.88;4979015;28;20179;-60
2022/11/27 09:13:13;;;;;;;1999.90;999.90;;;;;;;9.91;100.00;96233.28;4979244;28;20172;-60
2022/11/27 09:15:39;;;;;;;1999.90;999.90;;;;;;;9.94;100.00;96235.28;4978839;28;20319;-58
2022/11/27 09:18:05;;;;;;;1999.90;999.90;;;;;;;9.72;100.00;96233.53;4978999;28;20199;-58
2022/11/27 09:20:30;;;;;;;1999.90;999.90;;;;;;;9.32;100.00;96222.63;4978790;28;20176;-61
2022/11/27 09:22:55;;;;;;;1999.90;999.90;;;;;;;9.84;100.00;96225.06;4978567;28;20176;-63
2022/11/27 09:25:21;;;;;;;1999.90;999.90;;;;;;;10.06;100.00;96221.34;4979634;28;20168;-63
2022/11/27 09:27:46;;;;;;;1999.90;999.90;;;;;;;10.38;100.00;96232.47;4978817;28;20207;-64
2022/11/27 09:30:12;;;;;;;1999.90;999.90;;;;;;;9.99;100.00;96221.28;4979606;28;20306;-64
2022/11/27 09:32:37;;;;;;;1999.90;999.90;;;;;;;10.64;100.00;96223.28;4979140;28;20184;-63
2022/11/27 09:35:02;;;;;;;1999.90;999.90;;;;;;;10.42;100.00;96210.66;4978631;28;20172;-63
2022/11/27 09:37:28;;;;;;;1999.90;999.90;;;;;;;10.27;100.00;96217.22;4978650;28;20174;-64
2022/11/27 09:39:54;;;;;;;1999.90;999.90;;;;;;;10.16;100.00;96214.41;4978456;28;20183;-63
2022/11/27 09:42:39;;;;;;;1999.90;999.90;;;;;;;10.61;100.00;96213.09;4978698;28;20203;-63
2022/11/27 09:45:12;;;;;;;1999.90;999.90;;;;;;;8.61;100.00;96206.66;4978454;28;20315;-63
2022/11/27 09:47:47;;;;;;;1999.90;999.90;;;;;;;9.41;100.00;96204.06;4978576;28;20176;-63
2022/11/27 09:50:17;;;;;;;1999.90;999.90;;;;;;;9.45;100.00;96196.69;4978326;28;20303;-64
2022/11/27 09:52:48;;;;;;;1999.90;999.90;;;;;;;8.59;100.00;96194.56;4978408;28;20190;-64
2022/11/27 09:55:33;;;;;;;1999.90;999.90;;;;;;;8.88;100.00;96183.63;4978090;28;20215;-63
2022/11/27 09:58:17;;;;;;;1999.90;999.90;;;;;;;9.52;100.00;96188.56;4978960;28;20179;-62
2022/11/27 10:00:44;;;;;;;1999.90;999.90;;;;;;;9.09;100.00;96172.19;4978261;28;20179;-63
2022/11/27 10:03:20;;;;;;;1999.90;999.90;;;;;;;9.43;100.00;96176.38;4978201;28;20172;-62
2022/11/27 10:06:07;;;;;;;1999.90;999.90;;;;;;;9.22;100.00;96168.81;4978838;28;20582;-63
2022/11/27 10:08:58;;;;;;;1999.90;999.90;;;;;;;8.32;100.00;96168.56;4978087;28;20200;-63
2022/11/27 10:11:41;;;;;;;1999.90;999.90;;;;;;;8.62;100.00;96158.44;4978332;28;20172;-63
2022/11/27 10:14:19;;;;;;;1999.90;999.90;;;;;;;8.12;100.00;96153.50;4978941;28;20189;-62
2022/11/27 10:16:51;;;;;;;1999.90;999.90;;;;;;;7.77;100.00;96150.28;4978846;28;20164;-62
2022/11/27 10:19:28;;;;;;;1999.90;999.90;;;;;;;7.54;100.00;96158.47;4978733;28;20179;-64
2022/11/27 10:22:20;;;;;;;1999.90;999.90;;;;;;;7.82;100.00;96150.75;4978089;28;20180;-65
2022/11/27 10:24:51;;;;;;;1999.90;999.90;;;;;;;8.07;100.00;96149.16;4977854;28;20224;-62
2022/11/27 10:27:21;;;;;;;1999.90;999.90;;;;;;;7.25;100.00;96140.16;4977946;28;20179;-63
2022/11/27 10:29:53;;;;;;;1999.90;999.90;;;;;;;6.67;100.00;96141.47;4978097;28;20204;-62
2022/11/27 10:32:25;;;;;;;1999.90;999.90;;;;;;;6.45;100.00;96132.13;4977877;28;20540;-62
2022/11/27 10:35:12;;;;;;;1999.90;999.90;;;;;;;5.96;100.00;96139.25;4978367;28;20179;-63
2022/11/27 10:37:46;;;;;;;1999.90;999.90;;;;;;;5.77;100.00;96130.28;4982493;28;20185;-62
2022/11/27 10:40:12;;;;;;;1999.90;999.90;;;;;;;5.42;100.00;96129.47;4982254;28;20265;-63
2022/11/27 10:42:50;;;;;;;1999.90;999.90;;;;;;;5.05;100.00;96120.06;4981800;28;20256;-62
2022/11/27 10:45:23;;;;;;;1999.90;999.90;;;;;;;5.07;100.00;96115.09;4982129;28;20176;-61
2022/11/27 10:47:49;;;;;;;1999.90;999.90;;;;;;;4.99;100.00;96105.25;4982151;28;20182;-62
2022/11/27 10:50:16;;;;;;;1999.90;999.90;;;;;;;5.05;100.00;96098.41;4981472;28;20198;-61
2022/11/27 10:52:59;;;;;;;1999.90;999.90;;;;;;;5.12;100.00;96088.56;4981606;28;20185;-62
2022/11/27 10:55:47;;;;;;;1999.90;999.90;;;;;;;5.02;100.00;96083.69;4981416;28;20220;-63
2022/11/27 10:58:19;;;;;;;1999.90;999.90;;;;;;;5.11;100.00;96075.38;4981473;28;20174;-64